createdAt,value
2019-05-09T00:03:57.816Z,8.16
2019-05-09T00:06:26.458Z,8.16
2019-05-09T00:08:55.121Z,8.20
2019-05-09T00:11:24.594Z,8.14
2019-05-09T00:13:54.186Z,8.13
2019-05-09T00:16:23.501Z,8.04
2019-05-09T00:18:54.036Z,7.96
2019-05-09T00:21:43.727Z,7.95
2019-05-09T00:24:13.901Z,7.94
2019-05-09T00:26:44.294Z,7.90
2019-05-09T00:29:33.505Z,7.82
2019-05-09T00:32:21.318Z,7.82
2019-05-09T00:35:09.122Z,7.79
2019-05-09T00:37:56.885Z,7.70
2019-05-09T00:41:05.351Z,7.74
2019-05-09T00:43:34.311Z,7.64
2019-05-09T00:48:59.242Z,7.68
2019-05-09T00:51:27.853Z,7.63
2019-05-09T00:53:56.509Z,7.76
2019-05-09T00:56:25.063Z,7.69
2019-05-09T00:58:53.867Z,7.73
2019-05-09T01:01:24.027Z,7.70
2019-05-09T01:03:53.509Z,7.77
2019-05-09T01:06:24.139Z,7.78
2019-05-09T01:08:53.959Z,7.82
2019-05-09T01:11:24.574Z,7.76
2019-05-09T01:16:48.934Z,7.88
2019-05-09T01:19:17.491Z,7.89
2019-05-09T01:21:46.127Z,7.86
2019-05-09T01:24:14.822Z,7.88
2019-05-09T01:26:43.680Z,7.97
2019-05-09T01:29:13.978Z,7.93
2019-05-09T01:31:43.548Z,7.93
2019-05-09T01:34:53.092Z,8.05
2019-05-09T01:40:16.201Z,8.01
2019-05-09T01:42:44.777Z,8.05
2019-05-09T01:45:14.210Z,8.07
2019-05-09T01:47:43.996Z,8.07
2019-05-09T01:50:14.011Z,8.09
2019-05-09T01:52:43.910Z,8.07
2019-05-09T01:55:14.307Z,8.13
2019-05-09T01:57:47.233Z,8.21
2019-05-09T02:00:14.506Z,8.29
2019-05-09T02:02:43.358Z,8.27
2019-05-09T02:05:53.126Z,8.24
2019-05-09T02:08:23.652Z,8.16
2019-05-09T02:10:54.240Z,8.18
2019-05-09T02:13:23.288Z,8.24
2019-05-09T02:16:11.102Z,8.28
2019-05-09T02:21:15.308Z,8.33
2019-05-09T02:23:43.989Z,8.30
2019-05-09T02:26:13.543Z,8.24
2019-05-09T02:28:43.409Z,8.18
2019-05-09T02:31:16.354Z,8.15
2019-05-09T02:33:45.417Z,8.06
2019-05-09T02:36:14.056Z,8.04
2019-05-09T02:38:42.676Z,8.00
2019-05-09T02:41:11.355Z,7.98
2019-05-09T02:43:40.004Z,7.96
2019-05-09T02:48:49.507Z,7.97
2019-05-09T02:51:18.662Z,7.99
2019-05-09T02:53:48.744Z,7.98
2019-05-09T02:56:19.176Z,8.02
2019-05-09T03:01:43.727Z,8.18
2019-05-09T03:04:12.362Z,8.26
2019-05-09T03:06:41.037Z,8.30
2019-05-09T03:09:09.724Z,8.27
2019-05-09T03:11:39.037Z,8.30
2019-05-09T03:14:09.405Z,8.25
2019-05-09T03:16:40.074Z,8.30
2019-05-09T03:19:09.555Z,8.26
2019-05-09T03:21:58.441Z,8.25
2019-05-09T03:24:28.802Z,8.20
2019-05-09T03:27:18.731Z,8.15
2019-05-09T03:35:21.671Z,8.03
2019-05-09T03:38:09.358Z,8.06
2019-05-09T03:41:17.866Z,8.05
2019-05-09T03:43:48.319Z,8.02
2019-05-09T03:46:38.274Z,7.93
2019-05-09T03:52:01.035Z,7.85
2019-05-09T03:54:29.717Z,7.86
2019-05-09T03:57:18.020Z,7.82
2019-05-09T03:59:48.135Z,7.75
2019-05-09T04:02:17.821Z,7.75
2019-05-09T04:04:47.642Z,7.78
2019-05-09T04:07:18.657Z,7.79
2019-05-09T04:09:48.211Z,7.79
2019-05-09T04:15:25.087Z,7.69
2019-05-09T04:17:53.687Z,7.65
2019-05-09T04:20:22.269Z,7.59
2019-05-09T04:22:50.864Z,7.56
2019-05-09T04:28:08.780Z,7.52
2019-05-09T04:30:37.393Z,7.47
2019-05-09T04:33:07.320Z,7.49
2019-05-09T04:35:38.263Z,7.49
2019-05-09T04:38:07.447Z,7.51
2019-05-09T04:40:44.596Z,7.60
2019-05-09T04:43:14.279Z,7.74
2019-05-09T04:48:47.602Z,7.98
2019-05-09T04:51:17.991Z,8.14
2019-05-09T04:56:57.237Z,8.37
2019-05-09T04:59:25.444Z,8.37
2019-05-09T05:04:29.421Z,8.33
2019-05-09T05:06:58.693Z,8.23
2019-05-09T05:09:28.461Z,8.23
2019-05-09T05:11:57.977Z,8.23
2019-05-09T05:17:17.973Z,8.12
2019-05-09T05:19:47.763Z,8.14
2019-05-09T05:27:34.329Z,8.15
2019-05-09T05:30:02.993Z,8.25
2019-05-09T05:32:50.741Z,8.30
2019-05-09T05:35:38.393Z,8.40
2019-05-09T05:38:08.552Z,8.57
2019-05-09T05:40:45.570Z,8.80
2019-05-09T05:43:08.800Z,8.98
2019-05-09T05:48:38.346Z,9.24
2019-05-09T05:51:08.163Z,9.52
2019-05-09T05:53:38.124Z,9.83
2019-05-09T05:56:08.632Z,10.22
2019-05-09T05:58:38.778Z,10.63
2019-05-09T06:01:08.193Z,11.02
2019-05-09T06:03:37.872Z,11.13
2019-05-09T06:06:08.589Z,11.15
2019-05-09T06:08:38.015Z,10.98
2019-05-09T06:11:11.756Z,10.95
2019-05-09T06:13:38.028Z,10.84
2019-05-09T06:16:08.733Z,10.94
2019-05-09T06:18:38.592Z,11.03
2019-05-09T06:21:08.833Z,11.18
2019-05-09T06:23:37.594Z,11.39
2019-05-09T06:26:10.005Z,11.75
2019-05-09T06:28:37.678Z,11.38
2019-05-09T06:31:07.649Z,11.46
2019-05-09T06:33:44.876Z,11.70
2019-05-09T06:36:08.032Z,11.86
2019-05-09T06:38:37.730Z,11.80
2019-05-09T06:41:08.830Z,12.15
2019-05-09T06:44:11.076Z,12.48
2019-05-09T06:51:52.068Z,12.73
2019-05-09T06:54:20.713Z,12.51
2019-05-09T06:56:49.393Z,12.06
2019-05-09T06:59:19.098Z,11.98
2019-05-09T07:12:43.181Z,12.39
2019-05-09T07:15:11.829Z,12.62
2019-05-09T07:17:40.308Z,12.95
2019-05-09T07:20:09.003Z,14.22
2019-05-09T07:25:47.846Z,15.39
2019-05-09T07:28:18.007Z,15.17
2019-05-09T07:31:07.719Z,15.69
2019-05-09T07:36:27.714Z,17.70
2019-05-09T07:38:58.061Z,18.83
2019-05-09T07:41:28.185Z,18.93
2019-05-09T07:43:58.323Z,20.51
2019-05-09T07:51:37.834Z,20.48
2019-05-09T07:54:21.158Z,21.46
2019-05-09T07:56:37.827Z,19.42
2019-05-09T07:59:07.804Z,18.67
2019-05-09T08:02:17.769Z,16.71
2019-05-09T08:04:48.882Z,15.28
2019-05-09T08:07:18.107Z,13.90
2019-05-09T08:09:47.565Z,13.77
2019-05-09T08:12:17.936Z,13.60
2019-05-09T08:15:06.615Z,13.23
2019-05-09T08:17:18.196Z,13.07
2019-05-09T08:19:48.567Z,12.85
2019-05-09T08:22:24.805Z,12.70
2019-05-09T08:24:49.066Z,12.74
2019-05-09T08:27:17.728Z,12.61
2019-05-09T08:29:47.883Z,12.58
2019-05-09T08:32:18.083Z,12.47
2019-05-09T08:34:48.233Z,12.55
2019-05-09T08:37:17.689Z,12.42
2019-05-09T08:39:48.483Z,12.57
2019-05-09T08:42:17.959Z,12.59
2019-05-09T08:44:48.263Z,12.47
2019-05-09T08:47:18.443Z,12.56
2019-05-09T08:50:08.002Z,12.53
2019-05-09T08:52:37.719Z,12.61
2019-05-09T08:55:08.523Z,12.63
2019-05-09T08:57:38.201Z,12.45
2019-05-09T09:00:48.412Z,12.56
2019-05-09T09:03:18.528Z,12.40
2019-05-09T09:05:48.583Z,12.27
2019-05-09T09:08:18.421Z,12.14
2019-05-09T09:10:48.937Z,12.09
2019-05-09T09:13:18.465Z,12.06
2019-05-09T09:16:05.666Z,12.20
2019-05-09T09:18:18.113Z,12.18
2019-05-09T09:20:48.527Z,12.03
2019-05-09T09:23:18.317Z,11.71
2019-05-09T09:25:48.553Z,11.61
2019-05-09T09:28:18.298Z,11.35
2019-05-09T09:30:48.547Z,11.45
2019-05-09T09:33:18.178Z,11.60
2019-05-09T09:35:48.937Z,11.55
2019-05-09T09:38:17.822Z,11.47
2019-05-09T09:40:47.920Z,11.32
2019-05-09T09:43:17.975Z,11.22
2019-05-09T09:45:48.039Z,11.24
2019-05-09T09:48:18.036Z,11.22
2019-05-09T09:50:51.298Z,11.19
2019-05-09T09:53:18.475Z,11.11
2019-05-09T09:55:48.171Z,11.08
2019-05-09T09:58:18.974Z,11.10
2019-05-09T10:01:28.761Z,10.95
2019-05-09T10:04:23.107Z,11.08
2019-05-09T10:07:27.935Z,11.27
2019-05-09T10:09:58.374Z,11.22
2019-05-09T10:12:28.556Z,11.48
2019-05-09T10:15:18.902Z,11.25
2019-05-09T10:18:07.486Z,11.51
2019-05-09T10:20:58.412Z,11.62
2019-05-09T10:23:26.367Z,11.98
2019-05-09T10:25:54.943Z,11.85
2019-05-09T10:28:23.731Z,12.20
2019-05-09T10:30:52.348Z,12.18
2019-05-09T10:33:20.997Z,12.32
2019-05-09T10:35:49.690Z,12.32
2019-05-09T10:38:18.644Z,13.07
2019-05-09T10:40:48.962Z,13.89
2019-05-09T10:46:16.348Z,14.66
2019-05-09T10:51:33.539Z,14.65
2019-05-09T10:54:02.156Z,14.98
2019-05-09T10:56:30.888Z,14.56
2019-05-09T10:58:59.462Z,15.35
2019-05-09T11:01:29.411Z,15.40
2019-05-09T11:03:59.131Z,15.77
2019-05-09T11:06:29.146Z,16.08
2019-05-09T11:08:59.146Z,15.26
2019-05-09T11:14:32.201Z,15.50
2019-05-09T11:16:54.279Z,15.68
2019-05-09T11:22:18.480Z,15.47
2019-05-09T11:24:50.973Z,15.22
2019-05-09T11:27:18.658Z,15.26
2019-05-09T11:29:49.809Z,14.56
2019-05-09T11:32:18.118Z,14.68
2019-05-09T11:34:48.613Z,14.16
2019-05-09T11:37:17.242Z,14.01
2019-05-09T11:39:48.041Z,14.05
2019-05-09T11:42:17.791Z,13.89
2019-05-09T11:44:46.555Z,13.86
2019-05-09T11:47:28.538Z,14.20
2019-05-09T11:49:48.019Z,14.60
2019-05-09T11:52:18.308Z,14.78
2019-05-09T11:54:48.237Z,14.83
2019-05-09T11:57:18.944Z,14.83
2019-05-09T11:59:48.018Z,14.49
2019-05-09T12:02:18.042Z,14.33
2019-05-09T12:04:48.707Z,14.05
2019-05-09T12:07:18.136Z,13.95
2019-05-09T12:09:48.923Z,13.69
2019-05-09T12:12:19.323Z,13.42
2019-05-09T12:14:48.404Z,13.34
2019-05-09T12:17:19.584Z,13.39
2019-05-09T12:19:48.912Z,13.27
2019-05-09T12:22:19.288Z,13.30
2019-05-09T12:24:48.953Z,13.41
2019-05-09T12:27:18.747Z,13.28
2019-05-09T12:29:48.420Z,13.17
2019-05-09T12:32:18.824Z,13.09
2019-05-09T12:34:48.806Z,13.10
2019-05-09T12:37:18.232Z,13.02
2019-05-09T12:39:48.198Z,12.87
2019-05-09T12:42:18.760Z,12.73
2019-05-09T12:44:49.555Z,12.55
2019-05-09T12:47:19.216Z,12.47
2019-05-09T12:49:49.393Z,12.27
2019-05-09T12:52:18.682Z,12.20
2019-05-09T12:54:48.530Z,12.15
2019-05-09T12:57:19.243Z,12.14
2019-05-09T12:59:52.205Z,12.11
2019-05-09T13:02:17.954Z,12.17
2019-05-09T13:04:47.671Z,12.14
2019-05-09T13:07:16.962Z,12.21
2019-05-09T13:09:52.208Z,12.21
2019-05-09T13:12:18.019Z,12.25
2019-05-09T13:14:48.448Z,12.18
2019-05-09T13:19:52.666Z,12.32
2019-05-09T13:22:21.292Z,12.58
2019-05-09T13:24:49.868Z,12.59
2019-05-09T13:27:19.100Z,12.64
2019-05-09T13:29:49.523Z,12.62
2019-05-09T13:32:19.317Z,12.58
2019-05-09T13:34:48.634Z,12.56
2019-05-09T13:37:19.021Z,12.56
2019-05-09T13:39:48.642Z,12.54
2019-05-09T13:42:19.569Z,12.50
2019-05-09T13:44:47.700Z,12.45
2019-05-09T13:47:17.872Z,12.41
2019-05-09T13:49:48.474Z,12.49
2019-05-09T13:52:17.977Z,12.50
2019-05-09T13:54:48.272Z,12.52
2019-05-09T13:57:18.942Z,12.58
2019-05-09T13:59:48.800Z,12.52
2019-05-09T14:02:19.086Z,12.44
2019-05-09T14:04:49.220Z,12.39
2019-05-09T14:07:19.341Z,12.43
2019-05-09T14:09:48.532Z,12.42
2019-05-09T14:12:18.553Z,12.34
2019-05-09T14:14:47.240Z,12.36
2019-05-09T14:17:18.711Z,12.30
2019-05-09T14:19:50.360Z,12.24
2019-05-09T14:22:17.955Z,12.13
2019-05-09T14:24:48.355Z,11.97
2019-05-09T14:27:18.683Z,11.80
2019-05-09T14:29:49.762Z,11.80
2019-05-09T14:32:17.991Z,11.77
2019-05-09T14:34:48.248Z,11.74
2019-05-09T14:37:17.998Z,11.58
2019-05-09T14:39:57.768Z,11.44
2019-05-09T14:42:18.793Z,11.46
2019-05-09T14:44:48.150Z,11.42
2019-05-09T14:47:17.653Z,11.44
2019-05-09T14:49:49.733Z,11.38
2019-05-09T14:52:17.598Z,11.49
2019-05-09T14:54:48.260Z,11.56
2019-05-09T14:57:17.546Z,11.60
2019-05-09T14:59:47.052Z,11.78
2019-05-09T15:02:17.934Z,11.70
2019-05-09T15:04:48.412Z,11.84
2019-05-09T15:07:18.651Z,11.84
2019-05-09T15:09:46.868Z,11.85
2019-05-09T15:12:15.513Z,11.73
2019-05-09T15:14:44.198Z,11.66
2019-05-09T15:17:12.853Z,11.68
2019-05-09T15:19:56.566Z,11.64
2019-05-09T15:24:50.993Z,11.64
2019-05-09T15:27:19.699Z,11.68
2019-05-09T15:29:48.711Z,11.82
2019-05-09T15:32:18.614Z,11.97
2019-05-09T15:34:47.296Z,11.94
2019-05-09T15:37:18.393Z,12.07
2019-05-09T15:39:48.400Z,12.25
2019-05-09T15:42:18.257Z,12.27
2019-05-09T15:44:47.725Z,12.13
2019-05-09T15:50:27.812Z,11.86
2019-05-09T15:52:57.929Z,11.61
2019-05-09T15:55:28.262Z,11.53
2019-05-09T15:57:57.752Z,11.38
2019-05-09T16:00:28.413Z,11.36
2019-05-09T16:02:58.970Z,11.34
2019-05-09T16:05:28.347Z,11.40
2019-05-09T16:07:58.574Z,11.50
2019-05-09T16:10:28.305Z,11.56
2019-05-09T16:12:57.828Z,11.41
2019-05-09T16:15:28.604Z,11.35
2019-05-09T16:17:56.846Z,11.35
2019-05-09T16:20:36.905Z,11.31
2019-05-09T16:22:57.235Z,11.43
2019-05-09T16:25:28.348Z,11.52
2019-05-09T16:27:58.683Z,11.72
2019-05-09T16:30:27.565Z,11.78
2019-05-09T16:32:58.626Z,11.87
2019-05-09T16:35:28.588Z,11.84
2019-05-09T16:38:06.070Z,11.74
2019-05-09T16:40:28.526Z,11.75
2019-05-09T16:42:58.098Z,11.74
2019-05-09T16:45:28.746Z,11.67
2019-05-09T16:47:57.906Z,11.65
2019-05-09T16:50:26.538Z,11.60
2019-05-09T16:52:58.256Z,11.56
2019-05-09T16:58:14.833Z,11.57
2019-05-09T17:01:02.819Z,11.56
2019-05-09T17:03:31.505Z,11.52
2019-05-09T17:06:00.014Z,11.54
2019-05-09T17:08:28.690Z,11.56
2019-05-09T17:10:58.674Z,11.60
2019-05-09T17:13:28.935Z,11.53
2019-05-09T17:15:58.113Z,11.55
2019-05-09T17:18:28.280Z,11.58
2019-05-09T17:26:21.889Z,11.81
2019-05-09T17:28:50.475Z,11.82
2019-05-09T17:31:19.229Z,11.80
2019-05-09T17:33:48.651Z,11.71
2019-05-09T17:36:18.385Z,11.64
2019-05-09T17:38:47.781Z,11.59
2019-05-09T17:41:17.841Z,11.61
2019-05-09T17:43:47.701Z,11.52
2019-05-09T17:46:18.921Z,11.50
2019-05-09T17:48:47.934Z,11.44
2019-05-09T17:51:31.654Z,11.47
2019-05-09T17:53:51.866Z,11.49
2019-05-09T17:56:17.968Z,11.43
2019-05-09T17:58:48.537Z,11.45
2019-05-09T18:01:17.983Z,11.34
2019-05-09T18:03:48.208Z,11.43
2019-05-09T18:06:19.132Z,11.50
2019-05-09T18:08:48.536Z,11.49
2019-05-09T18:11:18.513Z,11.46
2019-05-09T18:13:48.104Z,11.45
2019-05-09T18:16:18.981Z,11.42
2019-05-09T18:19:29.348Z,11.42
2019-05-09T18:21:58.166Z,11.30
2019-05-09T18:24:28.770Z,11.36
2019-05-09T18:26:58.269Z,11.45
2019-05-09T18:32:41.832Z,11.36
2019-05-09T18:35:50.243Z,11.24
2019-05-09T18:38:38.838Z,11.27
2019-05-09T18:41:10.195Z,11.27
2019-05-09T18:43:39.012Z,11.19
2019-05-09T18:46:08.380Z,11.19
2019-05-09T18:48:38.370Z,11.18
2019-05-09T18:51:08.497Z,11.12
2019-05-09T18:53:37.142Z,11.06
2019-05-09T18:56:05.784Z,11.11
2019-05-09T18:58:36.081Z,11.07
2019-05-09T19:01:24.165Z,11.09
2019-05-09T19:03:52.825Z,11.10
2019-05-09T19:06:21.461Z,10.96
2019-05-09T19:08:50.153Z,10.96
2019-05-09T19:11:18.790Z,10.90
2019-05-09T19:13:47.365Z,10.89
2019-05-09T19:16:35.169Z,10.78
2019-05-09T19:19:23.041Z,10.78
2019-05-09T19:24:26.955Z,10.66
2019-05-09T19:26:55.640Z,10.65
2019-05-09T19:29:24.202Z,10.65
2019-05-09T19:31:52.801Z,10.57
2019-05-09T19:34:21.552Z,10.58
2019-05-09T19:36:50.245Z,10.47
2019-05-09T19:39:18.946Z,10.46
2019-05-09T19:41:47.728Z,10.53
2019-05-09T19:44:16.428Z,10.48
2019-05-09T19:46:45.074Z,10.49
2019-05-09T19:49:13.752Z,10.47
2019-05-09T19:54:50.555Z,10.45
2019-05-09T19:57:19.202Z,10.51
2019-05-09T19:59:47.961Z,10.42
2019-05-09T20:02:16.591Z,10.47
2019-05-09T20:07:27.999Z,10.50
2019-05-09T20:10:15.839Z,10.48
2019-05-09T20:15:33.709Z,10.44
2019-05-09T20:18:02.370Z,10.40
2019-05-09T20:20:31.007Z,10.42
2019-05-09T20:22:59.738Z,10.39
2019-05-09T20:25:28.407Z,10.43
2019-05-09T20:27:57.067Z,10.46
2019-05-09T20:30:25.959Z,10.46
2019-05-09T20:32:54.718Z,10.51
2019-05-09T20:35:23.372Z,10.47
2019-05-09T20:37:52.250Z,10.39
2019-05-09T20:40:21.074Z,10.34
2019-05-09T20:42:49.933Z,10.27
2019-05-09T20:45:18.774Z,10.28
2019-05-09T20:47:47.616Z,10.27
2019-05-09T20:50:16.448Z,10.24
2019-05-09T20:52:45.295Z,10.20
2019-05-09T20:55:14.109Z,10.17
2019-05-09T20:57:43.000Z,10.20
2019-05-09T21:00:11.863Z,10.19
2019-05-09T21:02:40.674Z,10.18
2019-05-09T21:05:09.538Z,10.17
2019-05-09T21:07:38.318Z,10.23
2019-05-09T21:13:02.156Z,10.10
2019-05-09T21:15:31.083Z,10.09
2019-05-09T21:17:59.876Z,10.07
2019-05-09T21:20:28.718Z,10.08
2019-05-09T21:22:57.478Z,10.05
2019-05-09T21:25:26.297Z,10.08
2019-05-09T21:27:55.091Z,10.04
2019-05-09T21:30:24.018Z,10.01
2019-05-09T21:32:52.869Z,10.02
2019-05-09T21:35:21.542Z,9.97
2019-05-09T21:37:50.168Z,9.90
2019-05-09T21:43:13.213Z,9.93
2019-05-09T21:45:41.875Z,9.84
2019-05-09T21:48:10.519Z,9.78
2019-05-09T21:50:39.233Z,9.75
2019-05-09T21:53:07.875Z,9.74
2019-05-09T21:55:36.499Z,9.71
2019-05-09T21:58:05.157Z,9.69
2019-05-09T22:03:31.706Z,9.76
2019-05-09T22:06:00.395Z,9.76
2019-05-09T22:08:29.137Z,9.76
2019-05-09T22:10:57.815Z,9.76
2019-05-09T22:13:26.421Z,9.78
2019-05-09T22:15:55.068Z,9.76
2019-05-09T22:18:23.710Z,9.77
2019-05-09T22:20:52.385Z,9.74
2019-05-09T22:23:55.209Z,9.76
2019-05-09T22:26:10.564Z,9.66
2019-05-09T22:28:39.249Z,9.70
2019-05-09T22:31:07.821Z,9.66
2019-05-09T22:33:36.514Z,9.59
2019-05-09T22:36:05.148Z,9.61
2019-05-09T22:38:33.764Z,9.58
2019-05-09T22:41:02.433Z,9.57
2019-05-09T22:43:31.087Z,9.53
2019-05-09T22:45:59.657Z,9.46
2019-05-09T22:48:28.357Z,9.47
2019-05-09T22:50:56.999Z,9.46
2019-05-09T22:53:25.617Z,9.49
2019-05-09T22:55:54.163Z,9.43
2019-05-09T22:58:22.740Z,9.42
2019-05-09T23:00:51.418Z,9.38
2019-05-09T23:03:20.111Z,9.42
2019-05-09T23:05:48.757Z,9.39
2019-05-09T23:08:17.379Z,9.40
2019-05-09T23:10:46.065Z,9.41
2019-05-09T23:13:14.614Z,9.42
2019-05-09T23:15:43.337Z,9.40
2019-05-09T23:18:12.043Z,9.35
2019-05-09T23:20:59.810Z,9.37
2019-05-09T23:23:47.609Z,9.34
2019-05-09T23:28:51.682Z,9.32
2019-05-09T23:34:09.503Z,9.29
2019-05-09T23:36:38.063Z,9.22
2019-05-09T23:39:46.529Z,9.20
2019-05-09T23:42:15.209Z,9.23
2019-05-09T23:44:43.794Z,9.20
2019-05-09T23:47:12.388Z,9.17
2019-05-09T23:49:41.081Z,9.13
2019-05-09T23:52:09.717Z,9.14
2019-05-09T23:54:57.522Z,9.25
2019-05-09T23:57:45.339Z,9.21
